Time;durP1;ratioP1;P1;durP2;ratioP2;P2;SDS_P1;SDS_P2;PMS_P1;PMS_P2;Temp;Humidity;BMP_temperature;BMP_pressure;BME280_temperature;BME280_humidity;BME280_pressure;Samples;Min_cycle;Max_cycle;Signal;HPM_P1;HPM_P2
2023/07/13 00:01:29;;;;;;;2.97;1.60;;;21.10;99.90;;;;;;5052250;28;20449;-78
2023/07/13 00:03:57;;;;;;;3.10;1.53;;;21.10;99.90;;;;;;5052987;28;20469;-78
2023/07/13 00:06:24;;;;;;;2.60;1.53;;;21.00;99.90;;;;;;5052821;28;20448;-77
2023/07/13 00:08:51;;;;;;;4.43;1.50;;;20.90;99.90;;;;;;5052137;28;20437;-78
2023/07/13 00:11:18;;;;;;;2.03;1.50;;;20.90;99.90;;;;;;5052519;28;20449;-77
2023/07/13 00:13:45;;;;;;;1.43;1.30;;;20.90;99.90;;;;;;5051077;28;20855;-78
2023/07/13 00:16:14;;;;;;;2.50;2.00;;;20.90;99.90;;;;;;5050898;28;20438;-77
2023/07/13 00:18:41;;;;;;;1.63;1.53;;;20.90;99.90;;;;;;5050707;28;20967;-78
2023/07/13 00:21:08;;;;;;;2.10;1.60;;;20.80;99.90;;;;;;5053399;28;20443;-77
2023/07/13 00:23:37;;;;;;;1.87;1.50;;;20.80;99.90;;;;;;5053740;28;20462;-79
2023/07/13 00:26:05;;;;;;;3.00;1.30;;;20.70;99.90;;;;;;5054204;28;20842;-77
2023/07/13 00:28:33;;;;;;;1.70;1.60;;;20.60;99.90;;;;;;5053647;28;20455;-77
2023/07/13 00:31:00;;;;;;;1.87;1.40;;;20.60;99.90;;;;;;5054351;28;20444;-77
2023/07/13 00:33:29;;;;;;;2.63;1.20;;;20.50;99.90;;;;;;5056232;28;20570;-78
2023/07/13 00:35:57;;;;;;;3.33;1.60;;;20.50;99.90;;;;;;5057134;28;20444;-78
2023/07/13 00:38:23;;;;;;;2.23;1.40;;;20.40;99.90;;;;;;5055498;28;20472;-79
2023/07/13 00:40:50;;;;;;;3.80;2.50;;;20.40;99.90;;;;;;5055025;28;20513;-78
2023/07/13 00:43:21;;;;;;;2.03;1.70;;;20.30;99.90;;;;;;5054274;28;20468;-79
2023/07/13 00:46:22;;;;;;;2.40;1.63;;;20.30;99.90;;;;;;5056739;28;20973;-78
2023/07/13 00:49:11;;;;;;;2.00;1.80;;;20.40;99.90;;;;;;5056453;28;20883;-78
2023/07/13 00:51:57;;;;;;;2.30;1.50;;;20.30;99.90;;;;;;5056389;28;20849;-77
2023/07/13 00:54:42;;;;;;;3.43;1.80;;;20.20;99.90;;;;;;5054879;28;20905;-78
2023/07/13 00:57:22;;;;;;;2.33;1.50;;;20.20;99.90;;;;;;5056523;28;21009;-78
2023/07/13 00:59:54;;;;;;;3.27;2.13;;;20.20;99.90;;;;;;5056428;28;20444;-77
2023/07/13 01:02:43;;;;;;;2.33;1.40;;;20.20;99.90;;;;;;5056035;28;20483;-79
2023/07/13 01:05:24;;;;;;;2.00;1.60;;;20.20;99.90;;;;;;5056238;28;20470;-77
2023/07/13 01:08:05;;;;;;;3.53;1.50;;;20.20;99.90;;;;;;5056776;28;20667;-77
2023/07/13 01:10:41;;;;;;;2.83;1.90;;;19.80;99.90;;;;;;5056981;28;20927;-77
2023/07/13 01:13:24;;;;;;;2.93;2.00;;;20.00;99.90;;;;;;5055981;28;20453;-78
2023/07/13 01:16:03;;;;;;;2.30;1.50;;;20.10;99.90;;;;;;5056547;28;20459;-78
2023/07/13 01:18:59;;;;;;;2.90;1.90;;;20.00;99.90;;;;;;5055597;28;20459;-77
2023/07/13 01:21:42;;;;;;;1.80;1.70;;;20.00;99.90;;;;;;5056007;28;20450;-78
2023/07/13 01:24:11;;;;;;;4.23;1.50;;;20.00;99.90;;;;;;5056032;28;20470;-78
2023/07/13 01:26:51;;;;;;;3.50;1.70;;;20.00;99.90;;;;;;5055830;28;20527;-77
2023/07/13 01:29:27;;;;;;;3.00;1.10;;;19.70;99.90;;;;;;5055492;28;20456;-77
2023/07/13 01:31:56;;;;;;;2.00;1.60;;;19.70;99.90;;;;;;5054814;28;20451;-77
2023/07/13 01:34:33;;;;;;;4.93;1.93;;;19.80;99.90;;;;;;5055082;28;20487;-77
2023/07/13 01:37:10;;;;;;;2.60;1.70;;;19.70;99.90;;;;;;5056534;28;20515;-78
2023/07/13 01:39:48;;;;;;;4.63;1.50;;;19.70;99.90;;;;;;5057116;28;20545;-77
2023/07/13 01:42:31;;;;;;;3.57;1.70;;;19.60;99.90;;;;;;5059382;28;20583;-77
2023/07/13 01:45:11;;;;;;;3.83;2.20;;;19.80;99.90;;;;;;5059228;28;20755;-78
2023/07/13 01:47:49;;;;;;;2.70;1.50;;;19.50;99.90;;;;;;5059886;28;20781;-77
2023/07/13 01:50:51;;;;;;;1.43;1.33;;;19.70;99.90;;;;;;5058834;28;20430;-76
2023/07/13 01:53:52;;;;;;;1.60;1.30;;;19.50;99.90;;;;;;5057578;28;20497;-78
2023/07/13 01:56:38;;;;;;;3.83;2.00;;;19.90;99.90;;;;;;5056845;28;20462;-78
2023/07/13 01:59:23;;;;;;;2.00;1.83;;;19.80;99.90;;;;;;5053951;28;20558;-78
2023/07/13 02:01:55;;;;;;;2.23;1.63;;;19.70;99.90;;;;;;5054313;28;20450;-77
2023/07/13 02:04:41;;;;;;;1.60;1.50;;;19.70;99.90;;;;;;5053975;28;20522;-77
2023/07/13 02:10:38;;;;;;;1.60;1.50;;;19.70;99.90;;;;;;5052950;28;20445;-77
2023/07/13 02:13:32;;;;;;;4.43;1.90;;;19.40;99.90;;;;;;5053630;28;20458;-77
2023/07/13 02:16:12;;;;;;;1.83;1.40;;;19.60;99.90;;;;;;5054040;28;20549;-78
2023/07/13 02:18:47;;;;;;;1.80;1.70;;;19.60;99.90;;;;;;5053027;28;20859;-77
2023/07/13 02:24:27;;;;;;;3.43;2.03;;;19.50;99.90;;;;;;5061053;28;20519;-77
2023/07/13 02:27:15;;;;;;;2.53;1.80;;;19.40;99.90;;;;;;5066306;28;20446;-77
2023/07/13 02:29:55;;;;;;;2.80;1.50;;;19.40;99.90;;;;;;5058248;28;20447;-78
2023/07/13 02:32:44;;;;;;;4.70;2.23;;;19.40;99.90;;;;;;5057873;28;20454;-79
2023/07/13 02:35:30;;;;;;;3.87;2.30;;;19.40;99.90;;;;;;5055846;28;20545;-77
2023/07/13 02:38:25;;;;;;;3.80;2.10;;;19.30;99.90;;;;;;5056918;28;20889;-78
2023/07/13 02:41:05;;;;;;;2.03;1.90;;;19.30;99.90;;;;;;5055476;28;20529;-78
2023/07/13 02:43:50;;;;;;;2.00;1.43;;;19.40;99.90;;;;;;5054397;28;20483;-78
2023/07/13 02:46:28;;;;;;;3.13;2.07;;;19.30;99.90;;;;;;5055295;28;20476;-77
2023/07/13 02:49:02;;;;;;;2.60;2.03;;;19.10;99.90;;;;;;5055595;28;20462;-77
2023/07/13 02:51:48;;;;;;;2.10;1.80;;;19.10;99.90;;;;;;5054561;28;20450;-77
2023/07/13 02:54:17;;;;;;;2.60;1.83;;;19.30;99.90;;;;;;5055150;28;20492;-77
2023/07/13 02:56:55;;;;;;;2.00;1.90;;;19.20;99.90;;;;;;5055453;28;20868;-77
2023/07/13 02:59:38;;;;;;;5.73;1.87;;;19.20;99.90;;;;;;5054817;28;20495;-77
2023/07/13 03:02:28;;;;;;;2.00;1.70;;;19.20;99.90;;;;;;5056678;28;20798;-78
2023/07/13 03:05:24;;;;;;;3.37;1.73;;;19.10;99.90;;;;;;5055045;28;21002;-78
2023/07/13 03:08:01;;;;;;;3.83;3.40;;;19.30;99.90;;;;;;5056846;28;20461;-78
2023/07/13 03:10:50;;;;;;;2.53;2.00;;;18.90;99.90;;;;;;5057443;28;20453;-77
2023/07/13 03:13:39;;;;;;;1.90;1.80;;;19.30;99.90;;;;;;5056913;28;20485;-76
2023/07/13 03:16:27;;;;;;;2.07;1.83;;;19.10;99.90;;;;;;5057002;28;20524;-77
2023/07/13 03:19:02;;;;;;;3.10;1.90;;;19.10;99.90;;;;;;5057039;28;20521;-77
2023/07/13 03:21:37;;;;;;;1.93;1.73;;;19.00;99.90;;;;;;5056992;28;20474;-77
2023/07/13 03:24:12;;;;;;;2.97;2.07;;;19.00;99.90;;;;;;5058147;28;20458;-78
2023/07/13 03:26:55;;;;;;;3.47;1.70;;;19.10;99.90;;;;;;5057324;28;20456;-79
2023/07/13 03:29:27;;;;;;;2.40;1.73;;;18.80;99.90;;;;;;5056406;28;20475;-77
2023/07/13 03:32:01;;;;;;;3.37;2.10;;;19.00;99.90;;;;;;5056201;28;20474;-78
2023/07/13 03:34:42;;;;;;;4.97;1.90;;;19.00;99.90;;;;;;5056707;28;20514;-77
2023/07/13 03:37:13;;;;;;;2.73;2.20;;;19.00;99.90;;;;;;5059722;28;20453;-77
2023/07/13 03:39:47;;;;;;;3.80;1.97;;;18.70;99.90;;;;;;5058778;28;20472;-77
2023/07/13 03:42:16;;;;;;;2.77;1.80;;;19.10;99.90;;;;;;5060259;28;20434;-76
2023/07/13 03:44:52;;;;;;;1.97;1.80;;;19.00;99.90;;;;;;5053303;28;20465;-78
2023/07/13 03:47:33;;;;;;;3.63;2.13;;;19.00;99.90;;;;;;5055061;28;20866;-75
2023/07/13 03:50:05;;;;;;;3.13;1.77;;;19.00;99.90;;;;;;5057892;28;20427;-77
2023/07/13 03:52:42;;;;;;;6.20;1.87;;;18.90;99.90;;;;;;5057124;28;21020;-76
2023/07/13 03:55:15;;;;;;;2.00;1.80;;;19.00;99.90;;;;;;5058072;28;20485;-77
2023/07/13 03:57:43;;;;;;;3.20;1.97;;;19.20;99.90;;;;;;5063582;28;20976;-77
2023/07/13 04:00:20;;;;;;;2.30;1.90;;;19.00;99.90;;;;;;5068238;28;20454;-79
2023/07/13 04:02:51;;;;;;;3.40;2.23;;;19.20;99.90;;;;;;5071754;28;20475;-77
2023/07/13 04:05:30;;;;;;;5.63;2.73;;;19.00;99.90;;;;;;5069529;28;20556;-78
2023/07/13 04:08:00;;;;;;;3.87;2.00;;;19.00;99.90;;;;;;5070398;28;20786;-77
2023/07/13 04:10:31;;;;;;;2.30;1.50;;;19.00;99.90;;;;;;5069430;28;20450;-78
2023/07/13 04:12:59;;;;;;;3.63;1.63;;;19.00;99.90;;;;;;5068854;28;20450;-77
2023/07/13 04:15:37;;;;;;;2.33;1.87;;;19.10;99.90;;;;;;5073063;28;20473;-78
2023/07/13 04:18:13;;;;;;;2.27;1.70;;;19.20;99.90;;;;;;5077055;28;20442;-76
2023/07/13 04:20:44;;;;;;;1.90;1.77;;;19.00;99.90;;;;;;5076743;28;20457;-77
2023/07/13 04:23:19;;;;;;;2.60;2.00;;;19.00;99.90;;;;;;5077684;28;20428;-77
2023/07/13 04:25:52;;;;;;;2.53;2.13;;;19.10;99.90;;;;;;5073521;28;20425;-78
2023/07/13 04:28:32;;;;;;;3.03;1.97;;;19.10;99.90;;;;;;5074148;28;20460;-77
2023/07/13 04:31:11;;;;;;;3.70;1.93;;;19.10;99.90;;;;;;5075972;28;20426;-77
2023/07/13 04:33:53;;;;;;;2.60;2.20;;;19.10;99.90;;;;;;5072530;28;20500;-78
2023/07/13 04:36:30;;;;;;;3.23;2.37;;;19.10;99.90;;;;;;5072234;28;20520;-78
2023/07/13 04:39:10;;;;;;;2.10;1.87;;;19.10;99.90;;;;;;5072352;28;20472;-76
2023/07/13 04:41:47;;;;;;;1.93;1.73;;;19.10;99.90;;;;;;5068634;28;20471;-79
2023/07/13 04:44:31;;;;;;;4.40;1.73;;;19.00;99.90;;;;;;5064483;28;20891;-77
2023/07/13 04:47:22;;;;;;;1.90;1.80;;;19.10;99.90;;;;;;5065133;28;20875;-78
2023/07/13 04:50:04;;;;;;;3.50;1.83;;;19.10;99.90;;;;;;5065668;28;20447;-78
2023/07/13 04:52:57;;;;;;;2.60;2.00;;;19.10;99.90;;;;;;5065294;28;21109;-77
2023/07/13 04:55:45;;;;;;;;;;;;;;;;;;;;;
2023/07/13 04:58:22;;;;;;;2.00;1.90;;;19.20;99.90;;;;;;5041375;28;20511;-78
2023/07/13 05:01:10;;;;;;;2.00;1.90;;;19.20;99.90;;;;;;5065930;28;20445;-80
2023/07/13 05:03:38;;;;;;;2.30;2.03;;;18.90;99.90;;;;;;5058497;28;20481;-78
2023/07/13 05:06:19;;;;;;;1.93;1.83;;;18.90;99.90;;;;;;5059468;28;20435;-78
2023/07/13 05:09:00;;;;;;;2.80;1.60;;;19.10;99.90;;;;;;5059397;28;20453;-79
2023/07/13 05:11:28;;;;;;;2.10;1.70;;;19.10;99.90;;;;;;5056116;28;20446;-77
2023/07/13 05:14:01;;;;;;;1.90;1.80;;;19.10;99.90;;;;;;5058475;28;20470;-77
2023/07/13 05:16:29;;;;;;;4.60;2.27;;;19.00;99.90;;;;;;5058046;28;20474;-77
2023/07/13 05:19:06;;;;;;;5.90;2.20;;;19.00;99.90;;;;;;5060949;28;20461;-76
2023/07/13 05:21:39;;;;;;;2.20;1.70;;;19.00;99.90;;;;;;5060463;28;20454;-79
2023/07/13 05:24:07;;;;;;;3.73;2.17;;;19.00;99.90;;;;;;5060244;28;20501;-79
2023/07/13 05:26:50;;;;;;;3.40;2.27;;;19.10;99.90;;;;;;5062084;28;20454;-78
2023/07/13 05:29:48;;;;;;;5.23;2.10;;;19.20;99.90;;;;;;5059111;28;20456;-78
2023/07/13 05:32:27;;;;;;;4.73;2.33;;;19.00;99.90;;;;;;5045968;28;20550;-79
2023/07/13 05:35:06;;;;;;;3.40;2.00;;;19.30;99.90;;;;;;5059711;28;20478;-79
2023/07/13 05:37:52;;;;;;;4.57;2.00;;;19.30;99.90;;;;;;5056222;28;20476;-79
2023/07/13 05:40:41;;;;;;;2.53;2.30;;;19.20;99.90;;;;;;5055876;28;20450;-78
2023/07/13 05:46:19;;;;;;;3.07;2.13;;;19.30;99.90;;;;;;5054914;28;20422;-78
2023/07/13 05:48:58;;;;;;;4.90;2.57;;;19.20;99.90;;;;;;5056196;28;20461;-78
2023/07/13 05:51:25;;;;;;;4.83;1.90;;;19.20;99.90;;;;;;5056969;28;20655;-79
2023/07/13 05:54:12;;;;;;;4.13;2.27;;;19.30;99.90;;;;;;5057480;28;20482;-79
2023/07/13 05:57:01;;;;;;;1.87;1.77;;;19.40;99.90;;;;;;5057432;28;20481;-77
2023/07/13 05:59:36;;;;;;;3.30;2.00;;;19.40;99.90;;;;;;5058278;28;20460;-78
2023/07/13 06:02:32;;;;;;;9.40;2.20;;;19.40;99.90;;;;;;5056700;28;20528;-77
2023/07/13 06:05:21;;;;;;;6.47;2.50;;;19.30;99.90;;;;;;5057911;28;20494;-78
2023/07/13 06:07:55;;;;;;;2.67;2.40;;;19.30;99.90;;;;;;5057437;28;20577;-78
2023/07/13 06:10:36;;;;;;;5.67;2.43;;;19.40;99.90;;;;;;5061467;28;20453;-77
2023/07/13 06:13:27;;;;;;;2.90;2.07;;;19.40;99.90;;;;;;5057360;28;20783;-76
2023/07/13 06:15:56;;;;;;;4.00;2.33;;;19.50;99.90;;;;;;5059190;28;20487;-77
2023/07/13 06:18:29;;;;;;;2.30;2.10;;;19.60;99.90;;;;;;5057707;28;20490;-78
2023/07/13 06:21:15;;;;;;;4.57;2.37;;;20.00;99.90;;;;;;5054676;28;20442;-77
2023/07/13 06:23:53;;;;;;;12.90;2.90;;;19.90;99.90;;;;;;5053342;28;20793;-78
2023/07/13 06:26:34;;;;;;;3.87;2.33;;;20.00;99.90;;;;;;5053927;28;20442;-78
2023/07/13 06:32:38;;;;;;;5.53;2.73;;;19.70;99.90;;;;;;5038483;28;20526;-76
2023/07/13 06:35:29;;;;;;;6.20;2.53;;;19.40;99.90;;;;;;5053454;28;20485;-79
2023/07/13 06:38:13;;;;;;;3.47;2.20;;;19.90;99.90;;;;;;5054307;28;20454;-78
2023/07/13 06:41:07;;;;;;;4.43;2.60;;;20.10;99.90;;;;;;5054883;28;20452;-78
2023/07/13 06:44:18;;;;;;;3.33;2.30;;;20.50;99.90;;;;;;5053065;28;20472;-77
2023/07/13 06:47:22;;;;;;;2.30;2.10;;;20.70;99.90;;;;;;5053116;28;20445;-79
2023/07/13 06:50:36;;;;;;;2.97;2.47;;;20.70;99.90;;;;;;5053296;28;20457;-77
2023/07/13 06:53:43;;;;;;;1.90;1.77;;;20.70;99.90;;;;;;5052800;28;20479;-77
2023/07/13 06:56:18;;;;;;;2.40;2.20;;;21.10;99.90;;;;;;5052890;28;20493;-76
2023/07/13 06:58:57;;;;;;;2.80;1.97;;;21.20;99.90;;;;;;5052818;28;20847;-77
2023/07/13 07:01:44;;;;;;;2.83;2.10;;;21.10;99.90;;;;;;5054802;28;20452;-78
2023/07/13 07:04:18;;;;;;;2.37;1.60;;;21.10;99.90;;;;;;5053569;28;20902;-78
2023/07/13 07:06:56;;;;;;;3.37;1.80;;;21.20;99.90;;;;;;5053813;28;20667;-78
2023/07/13 07:09:51;;;;;;;1.60;1.50;;;21.30;99.90;;;;;;5054079;28;20468;-78
2023/07/13 07:12:27;;;;;;;3.17;2.13;;;21.40;99.90;;;;;;5044454;28;20457;-76
2023/07/13 07:15:05;;;;;;;2.03;1.70;;;21.40;99.90;;;;;;5052873;28;20516;-79
2023/07/13 07:17:40;;;;;;;2.43;1.50;;;21.30;99.90;;;;;;5053346;28;20480;-77
2023/07/13 07:20:22;;;;;;;3.70;1.60;;;21.50;99.90;;;;;;5053875;28;20664;-78
2023/07/13 07:23:08;;;;;;;2.00;1.80;;;21.60;99.90;;;;;;5053766;28;20478;-76
2023/07/13 07:25:52;;;;;;;3.37;1.83;;;21.80;99.90;;;;;;5054854;28;20525;-77
2023/07/13 07:28:29;;;;;;;2.73;1.80;;;22.00;99.90;;;;;;5053694;28;20558;-76
2023/07/13 07:31:05;;;;;;;3.60;2.03;;;22.00;99.90;;;;;;5056856;28;20466;-77
2023/07/13 07:33:42;;;;;;;1.50;1.40;;;22.00;99.90;;;;;;5056626;28;20503;-77
2023/07/13 07:36:19;;;;;;;2.53;2.00;;;22.00;99.90;;;;;;5059069;28;20567;-77
2023/07/13 07:39:02;;;;;;;1.70;1.60;;;22.00;99.90;;;;;;5058443;28;20842;-76
2023/07/13 07:41:35;;;;;;;3.93;2.07;;;22.20;99.90;;;;;;5057705;28;20464;-78
2023/07/13 07:44:07;;;;;;;4.33;2.10;;;22.20;99.90;;;;;;5056957;28;20468;-78
2023/07/13 07:46:41;;;;;;;1.73;1.63;;;22.50;99.90;;;;;;5057746;28;20453;-78
2023/07/13 07:49:18;;;;;;;3.60;2.00;;;22.60;99.90;;;;;;5057777;28;20461;-77
2023/07/13 07:51:49;;;;;;;3.33;1.70;;;22.60;99.90;;;;;;5057586;28;20476;-78
2023/07/13 07:54:22;;;;;;;2.13;1.40;;;22.50;99.90;;;;;;5056368;28;20445;-77
2023/07/13 07:56:57;;;;;;;7.60;1.93;;;22.30;99.90;;;;;;5057456;28;20560;-78
2023/07/13 07:59:37;;;;;;;2.07;1.43;;;22.30;99.90;;;;;;5056159;28;20453;-78
2023/07/13 08:02:11;;;;;;;5.03;1.70;;;22.20;99.90;;;;;;5056420;28;20532;-77
2023/07/13 08:04:46;;;;;;;3.00;1.80;;;22.40;99.90;;;;;;5056689;28;20501;-78
2023/07/13 08:07:16;;;;;;;2.00;1.77;;;22.40;99.90;;;;;;5057149;28;21054;-77
2023/07/13 08:09:52;;;;;;;2.33;1.27;;;22.70;99.90;;;;;;5056094;28;20449;-77
2023/07/13 08:12:26;;;;;;;3.60;2.23;;;22.90;99.90;;;;;;5056073;28;20531;-76
2023/07/13 08:15:06;;;;;;;2.77;1.50;;;22.90;99.90;;;;;;5059096;28;21003;-76
2023/07/13 08:17:45;;;;;;;2.53;2.20;;;22.70;99.90;;;;;;5058904;28;20488;-78
2023/07/13 08:20:17;;;;;;;2.70;1.53;;;22.80;99.90;;;;;;5057423;28;20924;-74
2023/07/13 08:22:46;;;;;;;3.03;1.67;;;22.90;99.90;;;;;;5056146;28;20441;-74
2023/07/13 08:25:26;;;;;;;2.27;1.60;;;23.10;99.90;;;;;;5057141;28;20968;-76
2023/07/13 08:27:57;;;;;;;1.87;1.50;;;23.00;99.90;;;;;;5059653;28;20528;-76
2023/07/13 08:30:33;;;;;;;2.03;1.60;;;23.10;99.90;;;;;;5058586;28;20972;-76
2023/07/13 08:33:14;;;;;;;4.10;1.60;;;23.10;99.90;;;;;;5057882;28;21055;-76
2023/07/13 08:35:49;;;;;;;2.77;1.83;;;23.30;99.90;;;;;;5064648;28;20484;-77
2023/07/13 08:38:25;;;;;;;2.00;1.40;;;23.60;99.90;;;;;;5070225;28;20483;-77
2023/07/13 08:40:57;;;;;;;2.27;1.87;;;23.70;99.90;;;;;;5068159;28;20445;-76
2023/07/13 08:43:32;;;;;;;2.87;1.80;;;23.50;99.90;;;;;;5065117;28;20525;-76
2023/07/13 08:46:06;;;;;;;3.23;2.37;;;23.30;99.90;;;;;;5063445;28;20432;-76
2023/07/13 08:48:36;;;;;;;3.67;1.70;;;23.50;99.90;;;;;;5055162;28;20433;-79
2023/07/13 08:51:21;;;;;;;1.80;1.70;;;23.80;99.90;;;;;;5067816;28;20434;-77
2023/07/13 08:53:51;;;;;;;2.93;1.80;;;24.20;99.90;;;;;;5067351;28;20466;-77
2023/07/13 08:56:20;;;;;;;1.60;1.40;;;23.90;99.90;;;;;;5058907;28;20478;-78
2023/07/13 08:58:54;;;;;;;1.70;1.60;;;23.70;99.90;;;;;;5053850;28;20476;-77
2023/07/13 09:01:26;;;;;;;1.67;1.53;;;23.80;99.90;;;;;;5053384;28;20457;-77
2023/07/13 09:04:00;;;;;;;5.53;1.90;;;24.00;99.90;;;;;;5053231;28;20470;-76
2023/07/13 09:06:41;;;;;;;1.80;1.70;;;24.20;99.90;;;;;;5052903;28;20561;-76
2023/07/13 09:09:15;;;;;;;5.87;1.90;;;24.40;99.90;;;;;;5053360;28;20495;-76
2023/07/13 09:11:50;;;;;;;2.33;1.47;;;24.50;99.90;;;;;;5059414;28;20483;-76
2023/07/13 09:14:38;;;;;;;2.77;1.70;;;24.90;99.90;;;;;;5061456;28;20461;-77
2023/07/13 09:17:11;;;;;;;5.70;2.00;;;24.60;99.90;;;;;;5060724;28;20485;-77
2023/07/13 09:19:37;;;;;;;2.63;1.50;;;24.60;98.90;;;;;;5055259;28;20487;-76
2023/07/13 09:22:15;;;;;;;2.23;1.43;;;24.70;99.00;;;;;;5053754;28;20519;-76
2023/07/13 09:24:52;;;;;;;2.33;1.67;;;25.00;99.10;;;;;;5052990;28;20492;-77
2023/07/13 09:27:22;;;;;;;1.80;1.43;;;25.10;99.20;;;;;;5053322;28;20524;-77
2023/07/13 09:30:02;;;;;;;1.50;1.40;;;25.40;98.30;;;;;;5054428;28;20437;-77
2023/07/13 09:32:29;;;;;;;4.43;1.77;;;25.70;97.30;;;;;;5054559;28;20511;-77
2023/07/13 09:34:56;;;;;;;2.23;1.73;;;25.40;97.70;;;;;;5053747;28;20527;-78
2023/07/13 09:37:32;;;;;;;4.73;2.47;;;25.10;97.90;;;;;;5055115;28;20499;-76
2023/07/13 09:40:04;;;;;;;2.20;1.50;;;25.50;97.90;;;;;;5064991;28;20464;-77
2023/07/13 09:42:32;;;;;;;1.70;1.60;;;25.30;96.90;;;;;;5068430;28;20444;-76
2023/07/13 09:45:02;;;;;;;2.23;1.83;;;25.10;96.90;;;;;;5067535;28;20469;-76
2023/07/13 09:47:30;;;;;;;2.50;1.60;;;24.90;97.20;;;;;;5068986;28;20450;-76
2023/07/13 09:49:59;;;;;;;3.10;1.80;;;25.10;97.20;;;;;;5070353;28;20480;-77
2023/07/13 09:52:39;;;;;;;3.10;1.67;;;25.70;96.40;;;;;;5068192;28;20442;-77
2023/07/13 09:55:26;;;;;;;3.03;2.07;;;26.10;96.00;;;;;;5065055;28;20523;-77
2023/07/13 09:57:53;;;;;;;3.20;1.63;;;25.60;95.30;;;;;;5061078;28;20481;-77
2023/07/13 10:00:25;;;;;;;4.00;1.80;;;25.40;95.50;;;;;;5058950;28;20442;-77
2023/07/13 10:03:04;;;;;;;3.20;1.70;;;26.10;95.00;;;;;;5059343;28;20446;-76
2023/07/13 10:05:39;;;;;;;2.80;1.53;;;26.30;94.70;;;;;;5053501;28;20484;-79
2023/07/13 10:08:18;;;;;;;2.53;1.70;;;26.40;94.20;;;;;;5052408;28;20529;-78
2023/07/13 10:10:45;;;;;;;3.33;1.63;;;26.50;94.50;;;;;;5052823;28;20441;-77
2023/07/13 10:13:31;;;;;;;1.90;1.70;;;26.60;94.30;;;;;;5052198;28;20872;-77
2023/07/13 10:15:59;;;;;;;4.30;1.90;;;26.40;94.00;;;;;;5051674;28;20953;-76
2023/07/13 10:18:27;;;;;;;2.43;1.10;;;26.10;93.90;;;;;;5052429;28;20965;-78
2023/07/13 10:20:59;;;;;;;1.67;1.57;;;26.00;94.20;;;;;;5052268;28;20441;-77
2023/07/13 10:23:32;;;;;;;2.50;1.47;;;26.00;93.70;;;;;;5052324;28;20466;-77
2023/07/13 10:26:00;;;;;;;4.23;1.70;;;26.40;93.20;;;;;;5052009;28;20437;-78
2023/07/13 10:28:31;;;;;;;2.03;1.37;;;27.10;91.80;;;;;;5051735;28;20450;-78
2023/07/13 10:31:00;;;;;;;2.83;1.67;;;27.20;91.80;;;;;;5051146;28;20442;-79
2023/07/13 10:33:27;;;;;;;2.47;1.67;;;27.00;91.50;;;;;;5051298;28;20462;-78
2023/07/13 10:36:06;;;;;;;2.30;1.80;;;26.50;92.00;;;;;;5051386;28;20466;-77
2023/07/13 10:38:35;;;;;;;1.80;1.40;;;26.70;91.80;;;;;;5051897;28;20453;-77
2023/07/13 10:41:06;;;;;;;2.67;2.47;;;27.10;90.50;;;;;;5051031;28;20519;-78
2023/07/13 10:43:37;;;;;;;1.60;1.50;;;27.40;90.60;;;;;;5051575;28;20477;-77
2023/07/13 10:46:06;;;;;;;3.07;1.70;;;26.90;91.00;;;;;;5051427;28;20444;-78
2023/07/13 10:48:36;;;;;;;2.80;1.80;;;25.90;91.80;;;;;;5051459;28;20465;-77
2023/07/13 10:51:06;;;;;;;2.27;2.03;;;26.40;92.20;;;;;;5051536;28;20488;-79
2023/07/13 10:53:36;;;;;;;2.23;1.37;;;27.00;91.00;;;;;;5051136;28;20465;-77
2023/07/13 10:56:08;;;;;;;2.10;2.00;;;27.30;90.90;;;;;;5051539;28;20468;-79
2023/07/13 10:58:37;;;;;;;1.73;1.60;;;26.80;90.70;;;;;;5051215;28;20540;-78
2023/07/13 11:01:09;;;;;;;1.93;1.67;;;26.90;91.20;;;;;;5051463;28;20446;-78
2023/07/13 11:03:46;;;;;;;4.13;1.70;;;27.10;90.60;;;;;;5050870;28;20470;-77
2023/07/13 11:06:17;;;;;;;2.00;1.77;;;27.40;88.80;;;;;;5051234;28;20430;-77
2023/07/13 11:08:55;;;;;;;5.67;1.73;;;27.10;90.10;;;;;;5051303;28;20452;-79
2023/07/13 11:11:38;;;;;;;2.10;1.43;;;27.50;90.10;;;;;;5051425;28;20426;-78
2023/07/13 11:14:07;;;;;;;3.03;1.87;;;27.70;89.50;;;;;;5050589;28;20478;-77
2023/07/13 11:16:52;;;;;;;3.80;2.20;;;27.00;90.30;;;;;;5050758;28;20549;-80
2023/07/13 11:19:41;;;;;;;1.90;1.50;;;26.60;90.40;;;;;;5051274;28;20425;-78
2023/07/13 11:22:23;;;;;;;2.37;1.60;;;26.10;91.30;;;;;;5049732;28;20544;-78
2023/07/13 11:24:59;;;;;;;3.40;2.17;;;26.10;90.90;;;;;;5050848;28;20458;-79
2023/07/13 11:27:46;;;;;;;3.93;1.70;;;26.80;90.40;;;;;;5050688;28;20537;-78
2023/07/13 11:30:33;;;;;;;2.90;1.60;;;27.70;89.00;;;;;;5051241;28;20422;-77
2023/07/13 11:33:14;;;;;;;2.23;1.93;;;28.30;86.40;;;;;;5050249;28;20514;-76
2023/07/13 11:35:47;;;;;;;6.70;1.80;;;28.70;85.10;;;;;;5051134;28;20422;-76
2023/07/13 11:38:18;;;;;;;3.17;1.67;;;29.20;84.60;;;;;;5050702;28;20532;-77
2023/07/13 11:40:48;;;;;;;1.83;1.67;;;29.10;83.80;;;;;;5051150;28;20434;-77
2023/07/13 11:43:16;;;;;;;2.20;1.50;;;29.20;81.50;;;;;;5050202;28;20445;-78
2023/07/13 11:45:43;;;;;;;5.80;1.87;;;27.70;84.30;;;;;;5050569;28;20963;-77
2023/07/13 11:48:21;;;;;;;2.60;1.90;;;27.00;85.90;;;;;;5050804;28;20433;-77
2023/07/13 11:50:56;;;;;;;3.03;1.83;;;27.40;86.10;;;;;;5050559;28;20469;-78
2023/07/13 11:53:24;;;;;;;2.07;1.60;;;28.10;84.40;;;;;;5050293;28;20519;-77
2023/07/13 11:55:52;;;;;;;1.80;1.40;;;28.60;81.70;;;;;;5050908;28;20816;-77
2023/07/13 11:58:24;;;;;;;2.83;1.37;;;28.00;83.90;;;;;;5050810;28;20474;-77
2023/07/13 12:00:54;;;;;;;2.13;1.63;;;28.20;82.90;;;;;;5053757;28;20841;-78
2023/07/13 12:03:24;;;;;;;3.37;1.53;;;28.20;81.80;;;;;;5053516;28;20502;-77
2023/07/13 12:05:58;;;;;;;2.03;1.50;;;28.60;82.30;;;;;;5052203;28;20798;-79
2023/07/13 12:08:25;;;;;;;2.07;1.43;;;29.00;81.30;;;;;;5054187;28;20433;-76
2023/07/13 12:11:01;;;;;;;1.57;1.47;;;29.50;79.10;;;;;;5057219;28;20450;-78
2023/07/13 12:13:28;;;;;;;3.03;1.40;;;29.20;77.70;;;;;;5054476;28;21302;-77
2023/07/13 12:15:57;;;;;;;3.70;1.80;;;29.00;79.40;;;;;;5053220;28;20488;-77
2023/07/13 12:18:29;;;;;;;2.43;1.60;;;29.30;78.80;;;;;;5054356;28;20484;-77
2023/07/13 12:20:58;;;;;;;4.07;2.00;;;29.90;77.50;;;;;;5054187;28;20794;-77
2023/07/13 12:23:29;;;;;;;6.43;1.80;;;30.10;76.50;;;;;;5054420;28;20488;-77
2023/07/13 12:25:59;;;;;;;2.10;1.40;;;29.70;75.40;;;;;;5054798;28;20976;-78
2023/07/13 12:28:34;;;;;;;2.37;1.83;;;29.70;76.00;;;;;;5053626;28;20441;-76
2023/07/13 12:31:01;;;;;;;2.20;1.50;;;29.40;74.60;;;;;;5054524;28;20905;-77
2023/07/13 12:33:29;;;;;;;2.33;1.70;;;28.70;74.80;;;;;;5053795;28;20485;-77
2023/07/13 12:35:56;;;;;;;1.53;1.43;;;28.60;75.30;;;;;;5054250;28;20446;-77
2023/07/13 12:38:25;;;;;;;2.00;1.50;;;28.40;75.70;;;;;;5054275;28;20481;-77
2023/07/13 12:40:54;;;;;;;5.87;2.00;;;28.10;75.60;;;;;;5054069;28;20448;-78
2023/07/13 12:43:23;;;;;;;1.50;1.40;;;27.80;75.80;;;;;;5053646;28;20557;-77
2023/07/13 12:45:58;;;;;;;3.27;2.10;;;27.90;76.10;;;;;;5054202;28;20507;-77
2023/07/13 12:48:26;;;;;;;1.60;1.50;;;28.60;76.10;;;;;;5056194;28;20453;-77
2023/07/13 12:50:54;;;;;;;3.90;1.60;;;29.00;75.20;;;;;;5059412;28;20937;-77
2023/07/13 12:53:24;;;;;;;4.10;2.20;;;28.60;74.40;;;;;;5060737;28;20829;-78
2023/07/13 12:55:59;;;;;;;1.77;1.67;;;28.40;75.60;;;;;;5060492;28;20537;-78
2023/07/13 12:58:29;;;;;;;3.83;1.70;;;28.40;76.00;;;;;;5054835;28;20505;-79
2023/07/13 13:00:58;;;;;;;2.50;1.77;;;28.00;76.20;;;;;;5054956;28;20441;-78
2023/07/13 13:03:31;;;;;;;2.00;1.83;;;28.70;75.60;;;;;;5053886;28;20587;-77
2023/07/13 13:06:03;;;;;;;2.13;1.90;;;29.30;73.60;;;;;;5053855;28;20541;-77
2023/07/13 13:08:30;;;;;;;4.83;2.00;;;29.00;72.60;;;;;;5053824;28;20426;-79
2023/07/13 13:10:57;;;;;;;2.40;2.20;;;29.50;73.20;;;;;;5053740;28;20453;-76
2023/07/13 13:13:24;;;;;;;3.43;2.23;;;29.30;72.20;;;;;;5053245;28;20466;-77
2023/07/13 13:15:53;;;;;;;3.50;1.90;;;29.20;72.20;;;;;;5052970;28;20457;-78
2023/07/13 13:18:21;;;;;;;5.93;2.23;;;29.30;71.80;;;;;;5053692;28;20557;-78
2023/07/13 13:20:49;;;;;;;3.53;2.20;;;29.20;71.10;;;;;;5053633;28;20607;-77
2023/07/13 13:23:17;;;;;;;4.27;2.00;;;28.90;70.60;;;;;;5053961;28;20445;-77
2023/07/13 13:25:45;;;;;;;3.80;2.17;;;28.10;72.30;;;;;;5053686;28;20542;-77
2023/07/13 13:28:17;;;;;;;2.10;2.00;;;28.50;72.90;;;;;;5053282;28;20465;-78
2023/07/13 13:30:45;;;;;;;3.63;2.13;;;29.00;71.20;;;;;;5053710;28;20835;-76
2023/07/13 13:33:15;;;;;;;2.60;1.77;;;29.00;70.70;;;;;;5053833;28;20528;-79
2023/07/13 13:35:43;;;;;;;4.63;1.50;;;28.90;71.90;;;;;;5053779;28;20442;-77
2023/07/13 13:38:14;;;;;;;1.80;1.70;;;29.00;72.10;;;;;;5053563;28;21075;-78
2023/07/13 13:40:41;;;;;;;3.73;1.70;;;29.30;69.50;;;;;;5053341;28;20507;-76
2023/07/13 13:43:17;;;;;;;1.60;1.50;;;29.10;69.80;;;;;;5054736;28;20520;-79
2023/07/13 13:45:45;;;;;;;3.80;1.80;;;28.90;71.20;;;;;;5055757;28;20540;-78
2023/07/13 13:48:18;;;;;;;3.20;2.10;;;29.20;69.80;;;;;;5055673;28;20442;-79